Pagrindinis puslapis
METAR-TAF:

METAR-TAF

Oro uostai :

San Chosė, Kosta Rika

platuma: 09-57N, ilguma: 084-09W, Aukštis: 994 m

Dabartinis oras

Ataskaita buvo paskelbta 1 valandą ir 3 minutes, ne 00:00 UTC
Vėjas 1 kt iš Pietryčių
Temperatūra 21°C
Drėgmė 83%
Slėgis 1016 hPa
Matomumas 10 km arba daugiau
Mažai debesys ne aukštis 1000 ft
Su prošvaistėmis ne aukštis 4000 ft
Rūkas lopais

METAR: MRPV 230000Z 13001KT 9999 BCFG FEW010 BKN040 21/18 A3001 NOSIG

Laikas: 19:03 (01:03 UTC)

Prognozė

Ataskaita buvo paskelbta 2 valandos ir 3 minutes, ne 23:00 UTC
Prognozė galioja nuo 23 metu 00 UTC su 23 metu 24 UTC
Vėjas 5 kt iš Rytų/Pietryčių
Matomumas 10 km arba daugiau
Mažai debesys ne aukštis 3000 ft
Su prošvaistėmis ne aukštis 10000 ft
Tapsmas
nuo 23 metu 15 UTC su 23 metu 18 UTC
Vėjas 5 kt iš Šiaurės Vakarų
Laikinai
nuo 23 metu 20 UTC su 23 metu 23 UTC
Mažai debesys ne aukštis 2500 ft, aukštai iškilę kamuoliniai debesys.
lietus

TAF: MRPV 222300Z 2300/2324 12005KT 9999 FEW030 BKN100 TX25/2318Z TN18/2310Z BECMG 2315/2318 32005KT TEMPO 2320/2323 SHRA FEW025TCU

Orai ataskaitas ir orų prognozės (METAR, TAF).

turimą stotys yra geltonos ir raudonos taškus žemėlapyje.

Perkelti pele per norėdami pamatyti stoties vardą.

Tada spustelėkite, norėdami matyti oro stebėjimo ir prognozės.

Norėdami pakeisti žemėlapį: spustelėkite ant žalios mygtukų su juodo kryžiaus žemyn,; žalią mygtuką su brūkšneliu, jei norite nutolinti; arba žalių rodyklių gretimoms žemėlapius.


METAR-TAF: